createdAt,value
2019-04-27T00:01:31.462Z,93.00
2019-04-27T00:03:59.541Z,93.00
2019-04-27T00:06:27.642Z,93.00
2019-04-27T00:08:55.720Z,93.00
2019-04-27T00:11:23.801Z,93.00
2019-04-27T00:13:50.205Z,93.30
2019-04-27T00:16:18.280Z,93.30
2019-04-27T00:18:49.686Z,92.90
2019-04-27T00:21:16.447Z,92.80
2019-04-27T00:23:44.525Z,92.90
2019-04-27T00:26:10.694Z,92.70
2019-04-27T00:28:37.003Z,92.60
2019-04-27T00:31:03.402Z,92.40
2019-04-27T00:33:29.646Z,92.20
2019-04-27T00:35:57.849Z,92.20
2019-04-27T00:38:24.031Z,92.20
2019-04-27T00:40:53.719Z,92.30
2019-04-27T00:43:20.209Z,92.10
2019-04-27T00:45:46.382Z,91.90
2019-04-27T00:48:13.376Z,91.80
2019-04-27T00:50:40.518Z,91.70
2019-04-27T00:53:06.686Z,91.50
2019-04-27T00:55:34.767Z,91.40
2019-04-27T00:58:04.149Z,91.40
2019-04-27T01:00:30.458Z,91.20
2019-04-27T01:02:58.547Z,91.30
2019-04-27T01:05:26.730Z,91.30
2019-04-27T01:07:53.723Z,91.30
2019-04-27T01:10:20.297Z,91.30
2019-04-27T01:12:46.502Z,91.40
2019-04-27T01:15:13.761Z,91.60
2019-04-27T01:17:40.263Z,91.10
2019-04-27T01:20:06.572Z,91.50
2019-04-27T01:22:32.735Z,92.30
2019-04-27T01:24:59.449Z,92.60
2019-04-27T01:27:28.977Z,93.20
2019-04-27T01:29:55.825Z,93.30
2019-04-27T01:32:21.998Z,93.60
2019-04-27T01:34:49.409Z,93.60
2019-04-27T01:37:15.672Z,94.00
2019-04-27T01:39:41.838Z,93.90
2019-04-27T01:42:08.902Z,94.20
2019-04-27T01:44:36.119Z,93.80
2019-04-27T01:47:02.301Z,94.70
2019-04-27T01:49:29.485Z,95.30
2019-04-27T01:51:56.059Z,94.80
2019-04-27T01:54:24.143Z,94.60
2019-04-27T01:56:50.340Z,94.20
2019-04-27T01:59:16.510Z,94.10
2019-04-27T02:01:44.590Z,93.70
2019-04-27T02:04:12.695Z,94.20
2019-04-27T02:06:39.274Z,94.30
2019-04-27T02:09:05.846Z,94.20
2019-04-27T02:11:32.152Z,93.70
2019-04-27T02:13:59.444Z,94.00
2019-04-27T02:16:25.790Z,94.20
2019-04-27T02:18:52.039Z,94.10
2019-04-27T02:21:19.289Z,94.50
2019-04-27T02:23:45.586Z,94.40
2019-04-27T02:26:11.786Z,94.20
2019-04-27T02:28:39.862Z,94.50
2019-04-27T02:31:09.808Z,95.00
2019-04-27T02:33:35.960Z,95.50
2019-04-27T02:36:02.251Z,96.50
2019-04-27T02:38:30.519Z,96.10
2019-04-27T02:40:59.583Z,96.40
2019-04-27T02:43:29.386Z,96.40
2019-04-27T02:45:55.165Z,96.70
2019-04-27T02:48:21.367Z,96.70
2019-04-27T02:50:50.068Z,96.90
2019-04-27T02:53:19.491Z,96.70
2019-04-27T02:55:44.733Z,96.90
2019-04-27T02:58:13.026Z,97.40
2019-04-27T03:00:40.044Z,97.30
2019-04-27T03:03:10.155Z,97.80
2019-04-27T03:05:36.547Z,98.20
2019-04-27T03:08:02.727Z,98.40
2019-04-27T03:10:30.845Z,98.10
2019-04-27T03:13:00.071Z,97.90
2019-04-27T03:15:30.364Z,97.90
2019-04-27T03:17:59.686Z,97.70
2019-04-27T03:20:29.965Z,97.60
2019-04-27T03:23:00.031Z,97.50
2019-04-27T03:25:31.965Z,97.40
2019-04-27T03:28:00.035Z,97.20
2019-04-27T03:30:25.567Z,97.40
2019-04-27T03:32:56.676Z,97.00
2019-04-27T03:35:22.763Z,96.90
2019-04-27T03:37:50.039Z,96.90
2019-04-27T03:40:15.816Z,97.80
2019-04-27T03:42:43.883Z,97.50
2019-04-27T03:45:10.980Z,97.00
2019-04-27T03:47:40.276Z,96.80
2019-04-27T03:50:05.701Z,96.80
2019-04-27T03:52:33.781Z,96.80
2019-04-27T03:55:02.524Z,96.80
2019-04-27T03:57:30.599Z,97.00
2019-04-27T03:59:59.703Z,97.20
2019-04-27T04:02:26.998Z,97.40
2019-04-27T04:04:53.162Z,97.40
2019-04-27T04:07:19.775Z,97.30
2019-04-27T04:09:46.135Z,97.40
2019-04-27T04:12:14.213Z,97.70
2019-04-27T04:14:42.829Z,98.00
2019-04-27T04:17:12.692Z,98.20
2019-04-27T04:19:48.939Z,98.00
2019-04-27T04:22:06.258Z,98.10
2019-04-27T04:24:32.457Z,98.20
2019-04-27T04:26:59.898Z,98.00
2019-04-27T04:29:26.313Z,98.00
2019-04-27T04:31:52.491Z,98.00
2019-04-27T04:34:19.745Z,98.20
2019-04-27T04:36:46.348Z,98.00
2019-04-27T04:39:12.909Z,98.10
2019-04-27T04:41:43.636Z,98.10
2019-04-27T04:44:12.467Z,98.00
2019-04-27T04:46:39.919Z,98.00
2019-04-27T04:49:06.306Z,98.20
2019-04-27T04:51:32.478Z,96.50
2019-04-27T04:53:59.829Z,96.70
2019-04-27T04:56:29.202Z,96.60
2019-04-27T04:58:55.562Z,96.30
2019-04-27T05:01:21.766Z,95.90
2019-04-27T05:03:48.856Z,96.00
2019-04-27T05:06:15.112Z,96.30
2019-04-27T05:08:41.318Z,95.80
2019-04-27T05:11:09.501Z,95.90
2019-04-27T05:13:35.475Z,95.50
2019-04-27T05:16:01.666Z,95.20
2019-04-27T05:18:29.348Z,95.10
2019-04-27T05:20:58.605Z,94.90
2019-04-27T05:23:24.918Z,94.60
2019-04-27T05:25:51.101Z,94.70
2019-04-27T05:28:18.762Z,94.60
2019-04-27T05:30:45.152Z,94.40
2019-04-27T05:33:11.334Z,94.70
2019-04-27T05:35:40.646Z,94.50
2019-04-27T05:38:07.218Z,94.20
2019-04-27T05:40:33.486Z,94.10
2019-04-27T05:42:59.663Z,94.00
2019-04-27T05:45:33.954Z,95.10
2019-04-27T05:48:01.550Z,94.90
2019-04-27T05:50:36.143Z,94.90
2019-04-27T05:52:55.806Z,94.70
2019-04-27T05:55:21.974Z,95.00
2019-04-27T05:57:49.515Z,95.10
2019-04-27T06:00:19.173Z,95.20
2019-04-27T06:02:45.491Z,95.40
2019-04-27T06:05:11.664Z,94.90
2019-04-27T06:07:39.502Z,94.90
2019-04-27T06:10:05.821Z,94.90
2019-04-27T06:12:31.994Z,95.20
2019-04-27T06:14:59.884Z,95.00
2019-04-27T06:17:26.171Z,95.00
2019-04-27T06:19:52.344Z,94.80
2019-04-27T06:22:18.970Z,95.10
2019-04-27T06:24:45.226Z,94.80
2019-04-27T06:27:11.407Z,95.20
2019-04-27T06:29:39.314Z,94.70
2019-04-27T06:32:05.687Z,94.40
2019-04-27T06:34:31.855Z,93.90
2019-04-27T06:36:59.744Z,93.80
2019-04-27T06:39:26.111Z,93.50
2019-04-27T06:41:52.592Z,93.50
2019-04-27T06:44:19.602Z,93.40
2019-04-27T06:46:45.971Z,93.70
2019-04-27T06:49:12.150Z,93.60
2019-04-27T06:51:39.981Z,93.80
2019-04-27T06:54:06.350Z,93.40
2019-04-27T06:56:32.527Z,92.90
2019-04-27T06:58:59.714Z,92.70
2019-04-27T07:01:26.033Z,92.80
2019-04-27T07:03:52.211Z,92.00
2019-04-27T07:06:18.755Z,92.20
2019-04-27T07:08:44.992Z,92.20
2019-04-27T07:11:11.529Z,91.70
2019-04-27T07:13:39.026Z,91.50
2019-04-27T07:16:05.330Z,90.80
2019-04-27T07:18:31.506Z,91.20
2019-04-27T07:20:58.659Z,91.40
2019-04-27T07:23:25.066Z,91.70
2019-04-27T07:25:51.239Z,91.10
2019-04-27T07:28:19.037Z,90.50
2019-04-27T07:30:45.418Z,90.30
2019-04-27T07:33:11.589Z,90.40
2019-04-27T07:35:39.299Z,89.20
2019-04-27T07:38:05.571Z,90.10
2019-04-27T07:40:31.739Z,90.10
2019-04-27T07:42:59.928Z,88.90
2019-04-27T07:45:29.495Z,87.80
2019-04-27T07:47:55.886Z,88.10
2019-04-27T07:50:22.090Z,87.40
2019-04-27T07:52:48.665Z,87.50
2019-04-27T07:55:14.922Z,86.70
2019-04-27T07:57:41.117Z,86.10
2019-04-27T08:00:09.348Z,87.40
2019-04-27T08:02:35.625Z,87.70
2019-04-27T08:05:03.132Z,86.50
2019-04-27T08:07:29.310Z,85.70
2019-04-27T08:09:55.475Z,86.70
2019-04-27T08:12:21.766Z,84.00
2019-04-27T08:14:49.102Z,84.60
2019-04-27T08:17:15.502Z,84.30
2019-04-27T08:19:41.699Z,85.10
2019-04-27T08:22:09.545Z,84.80
2019-04-27T08:24:35.854Z,81.50
2019-04-27T08:27:03.950Z,80.30
2019-04-27T08:29:32.987Z,79.90
2019-04-27T08:32:01.201Z,79.00
2019-04-27T08:34:29.601Z,79.40
2019-04-27T08:36:55.882Z,80.40
2019-04-27T08:39:22.151Z,79.40
2019-04-27T08:41:49.452Z,79.00
2019-04-27T08:44:15.718Z,78.50
2019-04-27T08:46:41.885Z,79.00
2019-04-27T08:49:08.426Z,80.10
2019-04-27T08:51:36.150Z,78.40
2019-04-27T08:54:02.324Z,78.10
2019-04-27T08:59:11.810Z,78.10
2019-04-27T09:01:39.683Z,79.00
2019-04-27T09:04:06.054Z,76.70
2019-04-27T09:06:33.559Z,76.20
2019-04-27T09:09:01.741Z,77.40
2019-04-27T09:11:29.816Z,76.40
2019-04-27T09:13:58.964Z,77.10
2019-04-27T09:16:25.422Z,76.30
2019-04-27T09:18:53.505Z,76.10
2019-04-27T09:21:19.786Z,73.60
2019-04-27T09:23:45.966Z,75.10
2019-04-27T09:26:12.142Z,78.90
2019-04-27T09:28:38.812Z,80.50
2019-04-27T09:31:05.118Z,89.00
2019-04-27T09:33:31.402Z,91.10
2019-04-27T09:35:57.977Z,91.30
2019-04-27T09:38:24.146Z,91.50
2019-04-27T09:40:50.317Z,91.70
2019-04-27T09:43:16.522Z,91.00
2019-04-27T09:45:42.690Z,90.20
2019-04-27T09:48:08.871Z,89.80
2019-04-27T09:50:36.211Z,88.70
2019-04-27T09:53:02.717Z,85.90
2019-04-27T09:55:28.896Z,81.40
2019-04-27T09:57:56.798Z,80.60
2019-04-27T10:00:23.958Z,83.50
2019-04-27T10:02:50.134Z,82.70
2019-04-27T10:05:17.186Z,80.90
2019-04-27T10:07:43.448Z,79.30
2019-04-27T10:10:09.626Z,79.10
2019-04-27T10:12:36.866Z,80.10
2019-04-27T10:15:06.021Z,79.50
2019-04-27T10:17:32.392Z,78.40
2019-04-27T10:19:58.598Z,77.90
2019-04-27T10:22:38.089Z,77.50
2019-04-27T10:24:52.759Z,77.20
2019-04-27T10:27:19.240Z,77.50
2019-04-27T10:29:46.754Z,75.20
2019-04-27T10:32:13.086Z,75.50
2019-04-27T10:34:39.383Z,74.80
2019-04-27T10:37:06.027Z,74.30
2019-04-27T10:39:32.432Z,74.00
2019-04-27T10:41:58.642Z,74.90
2019-04-27T10:44:26.565Z,74.50
2019-04-27T10:46:54.234Z,76.10
2019-04-27T10:49:20.495Z,75.50
2019-04-27T10:51:46.662Z,77.00
2019-04-27T10:54:12.842Z,76.80
2019-04-27T10:56:39.033Z,77.00
2019-04-27T10:59:06.493Z,77.00
2019-04-27T11:01:35.825Z,76.80
2019-04-27T11:04:05.981Z,75.90
2019-04-27T11:06:34.190Z,75.90
2019-04-27T11:09:00.465Z,74.20
2019-04-27T11:11:27.848Z,72.10
2019-04-27T11:13:54.239Z,74.60
2019-04-27T11:16:20.410Z,74.00
2019-04-27T11:18:47.170Z,74.30
2019-04-27T11:21:13.587Z,74.60
2019-04-27T11:23:39.766Z,74.70
2019-04-27T11:26:07.577Z,74.90
2019-04-27T11:28:33.843Z,73.00
2019-04-27T11:31:00.010Z,72.30
2019-04-27T11:33:26.414Z,73.00
2019-04-27T11:35:54.594Z,75.10
2019-04-27T11:38:20.766Z,72.30
2019-04-27T11:40:47.037Z,72.50
2019-04-27T11:43:13.218Z,73.40
2019-04-27T11:45:39.385Z,74.20
2019-04-27T11:48:05.854Z,73.30
2019-04-27T11:50:32.155Z,73.00
2019-04-27T11:52:58.331Z,71.10
2019-04-27T11:55:24.635Z,73.70
2019-04-27T11:57:50.809Z,74.30
2019-04-27T12:00:19.388Z,74.30
2019-04-27T12:02:48.170Z,74.10
2019-04-27T12:05:15.982Z,74.00
2019-04-27T12:07:42.331Z,74.20
2019-04-27T12:10:08.613Z,74.20
2019-04-27T12:12:36.330Z,73.00
2019-04-27T12:15:05.763Z,72.90
2019-04-27T12:17:32.210Z,73.50
2019-04-27T12:19:58.388Z,75.30
2019-04-27T12:22:24.561Z,74.40
2019-04-27T12:24:50.767Z,74.20
2019-04-27T12:27:18.942Z,72.40
2019-04-27T12:29:47.272Z,73.20
2019-04-27T12:32:15.550Z,70.70
2019-04-27T12:34:41.794Z,70.40
2019-04-27T12:37:07.970Z,70.90
2019-04-27T12:39:34.246Z,73.60
2019-04-27T12:42:00.418Z,72.40
2019-04-27T12:44:26.589Z,70.40
2019-04-27T12:46:52.790Z,70.60
2019-04-27T12:49:18.990Z,72.40
2019-04-27T12:51:45.669Z,73.70
2019-04-27T12:54:13.846Z,73.40
2019-04-27T12:56:41.926Z,75.20
2019-04-27T12:59:10.002Z,75.20
2019-04-27T13:01:36.212Z,78.40
2019-04-27T13:04:03.066Z,78.60
2019-04-27T13:06:29.233Z,76.10
2019-04-27T13:08:55.845Z,74.40
2019-04-27T13:11:23.030Z,74.20
2019-04-27T13:13:49.294Z,71.70
2019-04-27T13:16:16.653Z,71.90
2019-04-27T13:18:42.866Z,72.20
2019-04-27T13:21:09.042Z,72.70
2019-04-27T13:23:37.050Z,71.90
2019-04-27T13:26:03.225Z,70.70
2019-04-27T13:28:29.486Z,69.80
2019-04-27T13:30:56.023Z,71.50
2019-04-27T13:33:22.368Z,70.60
2019-04-27T13:35:48.547Z,72.20
2019-04-27T13:38:16.169Z,71.20
2019-04-27T13:40:42.733Z,71.20
2019-04-27T13:43:10.810Z,69.50
2019-04-27T13:45:38.926Z,70.80
2019-04-27T13:48:07.012Z,70.60
2019-04-27T13:50:35.468Z,72.60
2019-04-27T13:53:03.261Z,75.10
2019-04-27T13:55:29.433Z,75.20
2019-04-27T13:57:55.608Z,73.60
2019-04-27T14:00:22.008Z,71.80
2019-04-27T14:02:48.174Z,73.30
2019-04-27T14:05:14.787Z,74.30
2019-04-27T14:07:40.989Z,75.20
2019-04-27T14:10:07.163Z,73.60
2019-04-27T14:12:33.334Z,72.90
2019-04-27T14:14:59.538Z,73.50
2019-04-27T14:17:25.727Z,69.20
2019-04-27T14:19:51.902Z,69.30
2019-04-27T14:22:18.296Z,70.20
2019-04-27T14:24:44.572Z,73.30
2019-04-27T14:27:10.957Z,76.50
2019-04-27T14:29:39.049Z,75.20
2019-04-27T14:32:05.454Z,74.00
2019-04-27T14:34:31.630Z,72.30
2019-04-27T14:36:58.729Z,71.60
2019-04-27T14:39:25.215Z,72.20
2019-04-27T14:41:51.394Z,70.80
2019-04-27T14:44:18.729Z,71.50
2019-04-27T14:46:45.075Z,71.40
2019-04-27T14:49:11.250Z,69.20
2019-04-27T14:51:39.881Z,68.90
2019-04-27T14:54:06.804Z,69.90
2019-04-27T14:56:33.173Z,69.70
2019-04-27T14:58:59.375Z,69.80
2019-04-27T15:01:25.542Z,70.20
2019-04-27T15:03:51.822Z,69.80
2019-04-27T15:06:19.909Z,69.40
2019-04-27T15:08:47.069Z,69.80
2019-04-27T15:11:17.324Z,69.80
2019-04-27T15:13:45.911Z,70.30
2019-04-27T15:16:10.550Z,71.90
2019-04-27T15:18:39.806Z,71.80
2019-04-27T15:21:06.635Z,69.90
2019-04-27T15:23:32.922Z,69.70
2019-04-27T15:26:00.392Z,70.40
2019-04-27T15:28:28.675Z,70.40
2019-04-27T15:30:56.748Z,71.10
2019-04-27T15:33:24.830Z,72.60
2019-04-27T15:35:52.937Z,71.90
2019-04-27T15:38:21.021Z,69.50
2019-04-27T15:40:54.281Z,69.30
2019-04-27T15:43:23.047Z,68.10
2019-04-27T15:45:48.478Z,67.40
2019-04-27T15:48:14.868Z,69.60
2019-04-27T15:50:41.150Z,69.30
2019-04-27T15:53:12.363Z,72.00
2019-04-27T15:55:38.964Z,73.10
2019-04-27T15:58:03.421Z,71.90
2019-04-27T16:00:29.691Z,73.20
2019-04-27T16:02:55.963Z,73.30
2019-04-27T16:05:23.589Z,73.30
2019-04-27T16:07:50.630Z,73.20
2019-04-27T16:10:17.736Z,75.20
2019-04-27T16:12:54.772Z,74.80
2019-04-27T16:15:13.447Z,76.80
2019-04-27T16:17:43.012Z,74.80
2019-04-27T16:20:10.483Z,75.00
2019-04-27T16:22:36.745Z,75.70
2019-04-27T16:25:04.414Z,76.40
2019-04-27T16:27:34.168Z,76.50
2019-04-27T16:30:04.773Z,77.90
2019-04-27T16:32:26.663Z,77.70
2019-04-27T16:34:52.866Z,77.10
2019-04-27T16:37:22.513Z,77.20
2019-04-27T16:39:49.584Z,77.20
2019-04-27T16:42:16.033Z,76.10
2019-04-27T16:44:44.266Z,76.80
2019-04-27T16:47:12.501Z,77.70
2019-04-27T16:49:38.579Z,78.30
2019-04-27T16:52:04.753Z,78.70
2019-04-27T16:54:30.931Z,79.40
2019-04-27T16:57:03.256Z,79.60
2019-04-27T16:59:40.692Z,80.50
2019-04-27T17:01:53.279Z,78.90
2019-04-27T17:04:19.498Z,78.30
2019-04-27T17:06:46.379Z,80.00
2019-04-27T17:09:13.156Z,80.70
2019-04-27T17:11:43.765Z,80.00
2019-04-27T17:14:09.638Z,80.30
2019-04-27T17:16:39.001Z,79.30
2019-04-27T17:19:09.033Z,78.60
2019-04-27T17:21:38.616Z,78.00
2019-04-27T17:24:03.986Z,77.60
2019-04-27T17:26:30.377Z,78.80
2019-04-27T17:28:59.181Z,79.30
2019-04-27T17:31:28.769Z,80.10
2019-04-27T17:33:58.612Z,80.40
2019-04-27T17:36:24.931Z,78.00
2019-04-27T17:38:51.259Z,77.80
2019-04-27T17:41:18.395Z,79.00
2019-04-27T17:43:44.678Z,80.00
2019-04-27T17:46:11.494Z,80.90
2019-04-27T17:48:38.943Z,81.40
2019-04-27T17:51:05.127Z,81.40
2019-04-27T17:53:33.119Z,80.90
2019-04-27T17:56:02.683Z,81.60
2019-04-27T17:58:28.653Z,81.80
2019-04-27T18:00:55.050Z,82.00
2019-04-27T18:03:21.329Z,81.90
2019-04-27T18:05:49.331Z,81.80
2019-04-27T18:08:19.998Z,81.60
2019-04-27T18:10:43.702Z,81.60
2019-04-27T18:13:09.869Z,81.70
2019-04-27T18:15:36.044Z,82.00
2019-04-27T18:18:04.226Z,82.90
2019-04-27T18:20:30.418Z,82.30
2019-04-27T18:22:58.494Z,82.20
2019-04-27T18:25:24.878Z,83.30
2019-04-27T18:27:51.069Z,84.00
2019-04-27T18:30:19.190Z,82.40
2019-04-27T18:32:45.342Z,80.50
2019-04-27T18:35:11.819Z,80.50
2019-04-27T18:37:38.951Z,80.90
2019-04-27T18:40:05.206Z,81.80
2019-04-27T18:42:31.382Z,83.00
2019-04-27T18:45:06.004Z,83.90
2019-04-27T18:47:25.547Z,83.60
2019-04-27T18:49:53.632Z,83.60
2019-04-27T18:52:21.707Z,83.70
2019-04-27T18:54:47.902Z,83.50
2019-04-27T18:57:15.243Z,83.50
2019-04-27T18:59:42.051Z,83.50
2019-04-27T19:02:08.587Z,83.40
2019-04-27T19:04:34.919Z,82.80
2019-04-27T19:07:01.087Z,82.40
2019-04-27T19:09:27.282Z,82.30
2019-04-27T19:11:56.602Z,82.50
2019-04-27T19:14:21.889Z,82.30
2019-04-27T19:16:48.508Z,82.90
2019-04-27T19:19:14.770Z,83.00
2019-04-27T19:21:41.049Z,83.70
2019-04-27T19:24:08.908Z,83.70
2019-04-27T19:26:38.264Z,84.30
2019-04-27T19:29:08.461Z,84.10
2019-04-27T19:31:38.200Z,84.30
2019-04-27T19:34:04.489Z,83.70
2019-04-27T19:36:30.667Z,82.80
2019-04-27T19:38:58.357Z,82.60
2019-04-27T19:41:24.697Z,82.40
2019-04-27T19:43:50.866Z,82.40
2019-04-27T19:46:17.167Z,82.40
2019-04-27T19:48:43.346Z,82.50
2019-04-27T19:51:09.538Z,82.60
2019-04-27T19:53:35.824Z,82.60
2019-04-27T19:56:02.021Z,82.40
2019-04-27T19:58:30.781Z,82.30
2019-04-27T20:01:10.916Z,82.20
2019-04-27T20:03:28.933Z,82.70
2019-04-27T20:05:55.142Z,82.60
2019-04-27T20:08:23.250Z,83.10
2019-04-27T20:10:49.426Z,83.20
2019-04-27T20:13:15.874Z,83.30
2019-04-27T20:15:42.974Z,83.20
2019-04-27T20:18:10.821Z,83.50
2019-04-27T20:20:37.202Z,83.70
2019-04-27T20:23:03.429Z,84.00
2019-04-27T20:25:31.269Z,84.90
2019-04-27T20:27:57.561Z,84.10
2019-04-27T20:30:24.798Z,84.30
2019-04-27T20:32:51.135Z,84.40
2019-04-27T20:35:17.389Z,84.40
2019-04-27T20:37:43.578Z,85.00
2019-04-27T20:40:11.642Z,84.60
2019-04-27T20:42:38.126Z,84.70
2019-04-27T20:45:04.729Z,84.40
2019-04-27T20:47:31.097Z,84.80
2019-04-27T20:49:57.254Z,85.00
2019-04-27T20:52:25.371Z,85.00
2019-04-27T20:54:51.561Z,84.70
2019-04-27T20:57:17.818Z,85.00
2019-04-27T20:59:44.096Z,85.40
2019-04-27T21:02:12.170Z,86.10
2019-04-27T21:04:41.913Z,85.80
2019-04-27T21:07:11.049Z,85.80
2019-04-27T21:09:37.426Z,85.70
2019-04-27T21:12:03.610Z,85.60
2019-04-27T21:14:31.681Z,85.30
2019-04-27T21:16:58.007Z,86.00
2019-04-27T21:19:24.194Z,86.10
2019-04-27T21:21:51.005Z,86.40
2019-04-27T21:24:17.366Z,85.80
2019-04-27T21:26:43.546Z,85.70
2019-04-27T21:29:11.548Z,85.40
2019-04-27T21:31:37.794Z,85.30
2019-04-27T21:34:04.071Z,85.40
2019-04-27T21:36:30.976Z,85.50
2019-04-27T21:38:57.343Z,86.20
2019-04-27T21:41:23.599Z,79.90
2019-04-27T21:43:51.209Z,78.30
2019-04-27T21:46:17.490Z,78.90
2019-04-27T21:48:43.663Z,80.50
2019-04-27T21:51:11.696Z,81.10
2019-04-27T21:53:41.159Z,82.10
2019-04-27T21:56:08.717Z,90.10
2019-04-27T21:58:34.958Z,92.70
2019-04-27T22:01:03.037Z,94.10
2019-04-27T22:03:31.606Z,92.90
2019-04-27T22:05:57.914Z,92.70
2019-04-27T22:08:24.083Z,92.80
2019-04-27T22:10:50.258Z,93.60
2019-04-27T22:13:16.699Z,93.30
2019-04-27T22:15:43.666Z,93.20
2019-04-27T22:18:11.152Z,93.60
2019-04-27T22:20:37.955Z,92.30
2019-04-27T22:23:06.538Z,91.00
2019-04-27T22:25:35.819Z,90.70
2019-04-27T22:28:02.502Z,91.90
2019-04-27T22:30:28.986Z,92.90
2019-04-27T22:32:55.262Z,93.30
2019-04-27T22:35:22.451Z,94.10
2019-04-27T22:37:48.998Z,95.00
2019-04-27T22:40:15.490Z,95.20
2019-04-27T22:42:43.623Z,95.40
2019-04-27T22:45:11.696Z,95.20
2019-04-27T22:47:37.862Z,95.00
2019-04-27T22:50:04.871Z,95.30
2019-04-27T22:52:31.045Z,96.20
2019-04-27T22:54:57.322Z,95.40
2019-04-27T22:57:25.430Z,94.20
2019-04-27T22:59:53.506Z,94.40
2019-04-27T23:02:21.848Z,96.00
2019-04-27T23:04:51.646Z,97.00
2019-04-27T23:07:18.274Z,96.50
2019-04-27T23:09:44.448Z,96.70
2019-04-27T23:12:11.960Z,96.10
2019-04-27T23:14:38.446Z,96.80
2019-04-27T23:17:08.154Z,97.00
2019-04-27T23:19:34.462Z,97.80
2019-04-27T23:22:00.865Z,95.90
2019-04-27T23:24:27.004Z,95.80
2019-04-27T23:26:53.302Z,96.60
2019-04-27T23:29:21.269Z,96.50
2019-04-27T23:31:49.358Z,95.80
2019-04-27T23:34:15.558Z,95.50
2019-04-27T23:36:44.166Z,95.80
2019-04-27T23:39:09.719Z,96.00
2019-04-27T23:41:35.998Z,96.00
2019-04-27T23:44:02.173Z,96.30
2019-04-27T23:46:28.345Z,97.30
2019-04-27T23:48:54.551Z,95.10
2019-04-27T23:51:22.622Z,95.50
2019-04-27T23:53:48.790Z,95.70
2019-04-27T23:56:14.999Z,94.80
2019-04-27T23:58:41.178Z,95.00
